sensor_id;sensor_type;location;lat;lon;timestamp;P1;durP1;ratioP1;P2;durP2;ratioP2
25249;SDS011;13201;51.148;13.738;2023-07-24T00:00:23;6.07;;;2.80;;
25249;SDS011;13201;51.148;13.738;2023-07-24T00:02:48;2.90;;;2.60;;
25249;SDS011;13201;51.148;13.738;2023-07-24T00:05:14;5.43;;;2.83;;
25249;SDS011;13201;51.148;13.738;2023-07-24T00:07:40;4.03;;;2.60;;
25249;SDS011;13201;51.148;13.738;2023-07-24T00:10:06;3.65;;;2.53;;
25249;SDS011;13201;51.148;13.738;2023-07-24T00:12:32;4.40;;;2.60;;
25249;SDS011;13201;51.148;13.738;2023-07-24T00:14:58;5.22;;;2.90;;
25249;SDS011;13201;51.148;13.738;2023-07-24T00:17:24;5.47;;;2.80;;
25249;SDS011;13201;51.148;13.738;2023-07-24T00:19:50;4.22;;;2.50;;
25249;SDS011;13201;51.148;13.738;2023-07-24T00:22:15;5.45;;;2.42;;
25249;SDS011;13201;51.148;13.738;2023-07-24T00:24:41;3.95;;;2.50;;
25249;SDS011;13201;51.148;13.738;2023-07-24T00:27:07;4.53;;;2.75;;
25249;SDS011;13201;51.148;13.738;2023-07-24T00:29:32;5.75;;;2.75;;
25249;SDS011;13201;51.148;13.738;2023-07-24T00:31:58;3.78;;;2.47;;
25249;SDS011;13201;51.148;13.738;2023-07-24T00:34:24;4.35;;;2.80;;
25249;SDS011;13201;51.148;13.738;2023-07-24T00:36:49;5.20;;;3.35;;
25249;SDS011;13201;51.148;13.738;2023-07-24T00:39:15;3.92;;;2.92;;
25249;SDS011;13201;51.148;13.738;2023-07-24T00:41:41;4.78;;;3.10;;
25249;SDS011;13201;51.148;13.738;2023-07-24T00:44:07;4.75;;;2.70;;
25249;SDS011;13201;51.148;13.738;2023-07-24T00:46:33;8.30;;;2.55;;
25249;SDS011;13201;51.148;13.738;2023-07-24T00:49:00;4.88;;;2.53;;
25249;SDS011;13201;51.148;13.738;2023-07-24T00:51:26;6.95;;;2.75;;
25249;SDS011;13201;51.148;13.738;2023-07-24T00:53:54;5.77;;;2.77;;
25249;SDS011;13201;51.148;13.738;2023-07-24T00:56:21;6.05;;;2.67;;
25249;SDS011;13201;51.148;13.738;2023-07-24T00:58:47;6.80;;;2.90;;
25249;SDS011;13201;51.148;13.738;2023-07-24T01:01:13;12.63;;;3.00;;
25249;SDS011;13201;51.148;13.738;2023-07-24T01:03:41;5.50;;;2.90;;
25249;SDS011;13201;51.148;13.738;2023-07-24T01:29:34;5.00;;;2.90;;
25249;SDS011;13201;51.148;13.738;2023-07-24T01:32:00;5.07;;;2.88;;
25249;SDS011;13201;51.148;13.738;2023-07-24T01:34:25;6.82;;;3.08;;
25249;SDS011;13201;51.148;13.738;2023-07-24T01:36:51;5.68;;;3.10;;
25249;SDS011;13201;51.148;13.738;2023-07-24T01:39:17;4.70;;;2.55;;
25249;SDS011;13201;51.148;13.738;2023-07-24T01:41:45;4.45;;;2.55;;
25249;SDS011;13201;51.148;13.738;2023-07-24T01:44:11;4.03;;;2.85;;
25249;SDS011;13201;51.148;13.738;2023-07-24T01:46:37;5.30;;;2.83;;
25249;SDS011;13201;51.148;13.738;2023-07-24T01:49:03;4.45;;;2.88;;
25249;SDS011;13201;51.148;13.738;2023-07-24T01:51:28;5.38;;;2.75;;
25249;SDS011;13201;51.148;13.738;2023-07-24T01:53:54;4.63;;;2.75;;
25249;SDS011;13201;51.148;13.738;2023-07-24T01:56:20;4.72;;;2.90;;
25249;SDS011;13201;51.148;13.738;2023-07-24T01:58:45;3.53;;;2.65;;
25249;SDS011;13201;51.148;13.738;2023-07-24T02:01:11;5.13;;;2.83;;
25249;SDS011;13201;51.148;13.738;2023-07-24T02:03:37;4.50;;;2.85;;
25249;SDS011;13201;51.148;13.738;2023-07-24T02:06:04;4.20;;;2.78;;
25249;SDS011;13201;51.148;13.738;2023-07-24T02:08:30;5.03;;;2.90;;
25249;SDS011;13201;51.148;13.738;2023-07-24T02:10:55;5.65;;;3.22;;
25249;SDS011;13201;51.148;13.738;2023-07-24T02:13:21;4.55;;;2.70;;
25249;SDS011;13201;51.148;13.738;2023-07-24T02:15:47;5.40;;;3.65;;
25249;SDS011;13201;51.148;13.738;2023-07-24T02:18:12;4.22;;;2.88;;
25249;SDS011;13201;51.148;13.738;2023-07-24T02:20:38;6.38;;;3.08;;
25249;SDS011;13201;51.148;13.738;2023-07-24T02:23:03;4.72;;;2.75;;
25249;SDS011;13201;51.148;13.738;2023-07-24T02:25:29;4.63;;;2.90;;
25249;SDS011;13201;51.148;13.738;2023-07-24T02:27:55;3.60;;;2.53;;
25249;SDS011;13201;51.148;13.738;2023-07-24T02:30:20;4.07;;;2.72;;
25249;SDS011;13201;51.148;13.738;2023-07-24T02:32:46;4.80;;;2.65;;
25249;SDS011;13201;51.148;13.738;2023-07-24T02:35:12;4.15;;;2.65;;
25249;SDS011;13201;51.148;13.738;2023-07-24T02:37:37;6.38;;;3.00;;
25249;SDS011;13201;51.148;13.738;2023-07-24T02:40:03;6.68;;;3.00;;
25249;SDS011;13201;51.148;13.738;2023-07-24T02:42:29;4.77;;;2.90;;
25249;SDS011;13201;51.148;13.738;2023-07-24T02:44:55;7.78;;;3.00;;
25249;SDS011;13201;51.148;13.738;2023-07-24T02:47:20;3.92;;;2.80;;
25249;SDS011;13201;51.148;13.738;2023-07-24T02:49:46;4.97;;;2.70;;
25249;SDS011;13201;51.148;13.738;2023-07-24T02:52:12;5.57;;;3.00;;
25249;SDS011;13201;51.148;13.738;2023-07-24T02:54:37;4.28;;;3.00;;
25249;SDS011;13201;51.148;13.738;2023-07-24T02:57:03;9.18;;;3.30;;
25249;SDS011;13201;51.148;13.738;2023-07-24T02:59:29;4.30;;;2.87;;
25249;SDS011;13201;51.148;13.738;2023-07-24T03:04:23;6.23;;;3.03;;
25249;SDS011;13201;51.148;13.738;2023-07-24T03:06:49;4.15;;;2.72;;
25249;SDS011;13201;51.148;13.738;2023-07-24T03:09:14;3.88;;;2.58;;
25249;SDS011;13201;51.148;13.738;2023-07-24T03:11:40;7.90;;;2.92;;
25249;SDS011;13201;51.148;13.738;2023-07-24T03:14:06;4.65;;;3.20;;
25249;SDS011;13201;51.148;13.738;2023-07-24T03:16:31;3.83;;;2.63;;
25249;SDS011;13201;51.148;13.738;2023-07-24T03:18:57;5.00;;;3.05;;
25249;SDS011;13201;51.148;13.738;2023-07-24T03:21:23;5.22;;;2.78;;
25249;SDS011;13201;51.148;13.738;2023-07-24T03:23:49;4.53;;;2.80;;
25249;SDS011;13201;51.148;13.738;2023-07-24T03:26:14;3.73;;;2.70;;
25249;SDS011;13201;51.148;13.738;2023-07-24T03:28:40;4.07;;;2.55;;
25249;SDS011;13201;51.148;13.738;2023-07-24T03:31:06;4.95;;;2.95;;
25249;SDS011;13201;51.148;13.738;2023-07-24T03:33:32;4.20;;;2.90;;
25249;SDS011;13201;51.148;13.738;2023-07-24T03:35:57;7.35;;;3.25;;
25249;SDS011;13201;51.148;13.738;2023-07-24T03:38:23;6.65;;;2.88;;
25249;SDS011;13201;51.148;13.738;2023-07-24T03:40:49;4.07;;;2.72;;
25249;SDS011;13201;51.148;13.738;2023-07-24T03:43:14;4.43;;;2.70;;
25249;SDS011;13201;51.148;13.738;2023-07-24T03:45:40;5.60;;;2.83;;
25249;SDS011;13201;51.148;13.738;2023-07-24T03:50:32;5.27;;;3.10;;
25249;SDS011;13201;51.148;13.738;2023-07-24T03:52:58;4.65;;;2.85;;
25249;SDS011;13201;51.148;13.738;2023-07-24T03:55:24;9.45;;;2.83;;
25249;SDS011;13201;51.148;13.738;2023-07-24T03:57:49;3.50;;;2.70;;
25249;SDS011;13201;51.148;13.738;2023-07-24T04:00:15;5.18;;;2.53;;
25249;SDS011;13201;51.148;13.738;2023-07-24T04:02:41;6.35;;;2.95;;
25249;SDS011;13201;51.148;13.738;2023-07-24T04:05:06;6.90;;;3.35;;
25249;SDS011;13201;51.148;13.738;2023-07-24T04:07:32;4.18;;;2.95;;
25249;SDS011;13201;51.148;13.738;2023-07-24T04:09:58;4.55;;;2.78;;
25249;SDS011;13201;51.148;13.738;2023-07-24T04:12:24;4.05;;;2.70;;
25249;SDS011;13201;51.148;13.738;2023-07-24T04:14:49;4.50;;;3.15;;
25249;SDS011;13201;51.148;13.738;2023-07-24T04:17:15;6.20;;;3.03;;
25249;SDS011;13201;51.148;13.738;2023-07-24T04:19:41;3.90;;;2.80;;
25249;SDS011;13201;51.148;13.738;2023-07-24T04:22:07;4.43;;;3.10;;
25249;SDS011;13201;51.148;13.738;2023-07-24T04:24:32;5.88;;;2.70;;
25249;SDS011;13201;51.148;13.738;2023-07-24T04:26:58;5.72;;;2.92;;
25249;SDS011;13201;51.148;13.738;2023-07-24T04:29:24;4.53;;;2.80;;
25249;SDS011;13201;51.148;13.738;2023-07-24T04:31:51;4.47;;;2.97;;
25249;SDS011;13201;51.148;13.738;2023-07-24T04:34:18;5.17;;;2.70;;
25249;SDS011;13201;51.148;13.738;2023-07-24T04:36:44;5.45;;;2.67;;
25249;SDS011;13201;51.148;13.738;2023-07-24T04:39:10;4.13;;;2.70;;
25249;SDS011;13201;51.148;13.738;2023-07-24T04:41:35;5.80;;;3.28;;
25249;SDS011;13201;51.148;13.738;2023-07-24T04:44:01;4.82;;;2.83;;
25249;SDS011;13201;51.148;13.738;2023-07-24T04:46:27;4.22;;;2.90;;
25249;SDS011;13201;51.148;13.738;2023-07-24T04:48:52;5.05;;;2.80;;
25249;SDS011;13201;51.148;13.738;2023-07-24T04:51:18;4.60;;;2.90;;
25249;SDS011;13201;51.148;13.738;2023-07-24T04:53:44;4.88;;;3.20;;
25249;SDS011;13201;51.148;13.738;2023-07-24T04:56:10;4.73;;;3.20;;
25249;SDS011;13201;51.148;13.738;2023-07-24T04:58:35;5.10;;;3.30;;
25249;SDS011;13201;51.148;13.738;2023-07-24T05:01:05;6.63;;;2.78;;
25249;SDS011;13201;51.148;13.738;2023-07-24T05:03:31;6.32;;;2.67;;
25249;SDS011;13201;51.148;13.738;2023-07-24T05:05:59;4.30;;;2.80;;
25249;SDS011;13201;51.148;13.738;2023-07-24T05:08:26;5.40;;;3.10;;
25249;SDS011;13201;51.148;13.738;2023-07-24T05:10:55;7.55;;;2.95;;
25249;SDS011;13201;51.148;13.738;2023-07-24T05:13:22;6.45;;;3.28;;
25249;SDS011;13201;51.148;13.738;2023-07-24T05:15:47;4.60;;;3.17;;
25249;SDS011;13201;51.148;13.738;2023-07-24T05:18:13;5.88;;;2.80;;
25249;SDS011;13201;51.148;13.738;2023-07-24T05:20:42;9.48;;;3.25;;
25249;SDS011;13201;51.148;13.738;2023-07-24T05:23:12;4.80;;;2.83;;
25249;SDS011;13201;51.148;13.738;2023-07-24T05:25:38;4.55;;;2.90;;
25249;SDS011;13201;51.148;13.738;2023-07-24T05:28:04;5.22;;;3.00;;
25249;SDS011;13201;51.148;13.738;2023-07-24T05:30:31;9.07;;;3.15;;
25249;SDS011;13201;51.148;13.738;2023-07-24T05:32:58;4.05;;;2.67;;
25249;SDS011;13201;51.148;13.738;2023-07-24T05:35:24;7.05;;;3.08;;
25249;SDS011;13201;51.148;13.738;2023-07-24T05:37:52;5.32;;;2.88;;
25249;SDS011;13201;51.148;13.738;2023-07-24T05:40:18;5.45;;;2.97;;
25249;SDS011;13201;51.148;13.738;2023-07-24T05:42:43;5.15;;;3.20;;
25249;SDS011;13201;51.148;13.738;2023-07-24T05:45:09;4.15;;;2.92;;
25249;SDS011;13201;51.148;13.738;2023-07-24T05:47:36;5.32;;;3.10;;
25249;SDS011;13201;51.148;13.738;2023-07-24T05:50:02;5.23;;;3.00;;
25249;SDS011;13201;51.148;13.738;2023-07-24T05:52:28;4.65;;;3.10;;
25249;SDS011;13201;51.148;13.738;2023-07-24T05:54:54;4.60;;;2.72;;
25249;SDS011;13201;51.148;13.738;2023-07-24T05:57:19;4.95;;;2.90;;
25249;SDS011;13201;51.148;13.738;2023-07-24T05:59:45;5.85;;;3.33;;
25249;SDS011;13201;51.148;13.738;2023-07-24T06:02:11;6.03;;;3.50;;
25249;SDS011;13201;51.148;13.738;2023-07-24T06:04:36;4.88;;;3.10;;
25249;SDS011;13201;51.148;13.738;2023-07-24T06:07:02;5.05;;;2.92;;
25249;SDS011;13201;51.148;13.738;2023-07-24T06:09:28;6.70;;;3.45;;
25249;SDS011;13201;51.148;13.738;2023-07-24T06:11:54;9.93;;;3.20;;
25249;SDS011;13201;51.148;13.738;2023-07-24T06:14:20;10.23;;;3.30;;
25249;SDS011;13201;51.148;13.738;2023-07-24T06:16:45;5.85;;;3.05;;
25249;SDS011;13201;51.148;13.738;2023-07-24T06:19:11;6.13;;;3.65;;
25249;SDS011;13201;51.148;13.738;2023-07-24T06:21:37;5.50;;;3.70;;
25249;SDS011;13201;51.148;13.738;2023-07-24T06:24:02;5.93;;;3.38;;
25249;SDS011;13201;51.148;13.738;2023-07-24T06:26:28;4.72;;;3.10;;
25249;SDS011;13201;51.148;13.738;2023-07-24T06:28:54;7.03;;;3.30;;
25249;SDS011;13201;51.148;13.738;2023-07-24T06:31:20;5.30;;;3.45;;
25249;SDS011;13201;51.148;13.738;2023-07-24T06:33:46;8.20;;;3.30;;
25249;SDS011;13201;51.148;13.738;2023-07-24T06:36:11;6.63;;;3.63;;
25249;SDS011;13201;51.148;13.738;2023-07-24T06:38:38;5.70;;;3.55;;
25249;SDS011;13201;51.148;13.738;2023-07-24T06:41:04;5.45;;;3.17;;
25249;SDS011;13201;51.148;13.738;2023-07-24T06:43:29;7.88;;;3.35;;
25249;SDS011;13201;51.148;13.738;2023-07-24T06:45:55;8.52;;;3.65;;
25249;SDS011;13201;51.148;13.738;2023-07-24T06:48:21;7.90;;;3.70;;
25249;SDS011;13201;51.148;13.738;2023-07-24T06:50:46;6.15;;;3.05;;
25249;SDS011;13201;51.148;13.738;2023-07-24T06:53:12;5.33;;;3.37;;
25249;SDS011;13201;51.148;13.738;2023-07-24T06:55:37;5.30;;;3.47;;
25249;SDS011;13201;51.148;13.738;2023-07-24T06:58:03;5.45;;;3.55;;
25249;SDS011;13201;51.148;13.738;2023-07-24T07:00:29;5.40;;;3.60;;
25249;SDS011;13201;51.148;13.738;2023-07-24T07:02:54;9.00;;;3.72;;
25249;SDS011;13201;51.148;13.738;2023-07-24T07:05:20;4.95;;;3.42;;
25249;SDS011;13201;51.148;13.738;2023-07-24T07:07:46;6.47;;;3.60;;
25249;SDS011;13201;51.148;13.738;2023-07-24T07:10:11;6.10;;;3.65;;
25249;SDS011;13201;51.148;13.738;2023-07-24T07:12:37;7.60;;;3.47;;
25249;SDS011;13201;51.148;13.738;2023-07-24T07:15:03;6.82;;;3.65;;
25249;SDS011;13201;51.148;13.738;2023-07-24T07:17:28;17.95;;;3.67;;
25249;SDS011;13201;51.148;13.738;2023-07-24T07:19:54;6.13;;;3.33;;
25249;SDS011;13201;51.148;13.738;2023-07-24T07:22:21;6.40;;;3.22;;
25249;SDS011;13201;51.148;13.738;2023-07-24T07:24:47;7.43;;;3.88;;
25249;SDS011;13201;51.148;13.738;2023-07-24T07:27:12;6.40;;;3.30;;
25249;SDS011;13201;51.148;13.738;2023-07-24T07:29:38;6.13;;;3.70;;
25249;SDS011;13201;51.148;13.738;2023-07-24T07:32:04;6.65;;;3.58;;
25249;SDS011;13201;51.148;13.738;2023-07-24T07:34:30;9.27;;;4.30;;
25249;SDS011;13201;51.148;13.738;2023-07-24T07:36:56;5.67;;;3.33;;
25249;SDS011;13201;51.148;13.738;2023-07-24T07:39:21;7.22;;;3.95;;
25249;SDS011;13201;51.148;13.738;2023-07-24T07:41:47;7.03;;;4.17;;
25249;SDS011;13201;51.148;13.738;2023-07-24T07:44:13;7.97;;;3.45;;
25249;SDS011;13201;51.148;13.738;2023-07-24T07:46:38;5.23;;;3.40;;
25249;SDS011;13201;51.148;13.738;2023-07-24T07:49:04;6.37;;;3.80;;
25249;SDS011;13201;51.148;13.738;2023-07-24T07:51:29;6.13;;;3.47;;
25249;SDS011;13201;51.148;13.738;2023-07-24T07:53:55;5.03;;;3.50;;
25249;SDS011;13201;51.148;13.738;2023-07-24T07:56:21;5.50;;;3.77;;
25249;SDS011;13201;51.148;13.738;2023-07-24T07:58:46;7.20;;;3.43;;
25249;SDS011;13201;51.148;13.738;2023-07-24T08:01:12;7.23;;;3.30;;
25249;SDS011;13201;51.148;13.738;2023-07-24T08:03:38;5.57;;;3.63;;
25249;SDS011;13201;51.148;13.738;2023-07-24T08:06:03;9.50;;;4.17;;
25249;SDS011;13201;51.148;13.738;2023-07-24T08:08:29;4.87;;;3.33;;
25249;SDS011;13201;51.148;13.738;2023-07-24T08:10:55;5.70;;;3.73;;
25249;SDS011;13201;51.148;13.738;2023-07-24T08:13:20;7.40;;;3.93;;
25249;SDS011;13201;51.148;13.738;2023-07-24T08:15:46;5.90;;;3.83;;
25249;SDS011;13201;51.148;13.738;2023-07-24T08:18:12;6.80;;;3.70;;
25249;SDS011;13201;51.148;13.738;2023-07-24T08:20:37;7.23;;;3.77;;
25249;SDS011;13201;51.148;13.738;2023-07-24T08:23:06;5.72;;;3.60;;
25249;SDS011;13201;51.148;13.738;2023-07-24T08:25:31;6.10;;;3.60;;
25249;SDS011;13201;51.148;13.738;2023-07-24T08:27:57;8.03;;;3.90;;
25249;SDS011;13201;51.148;13.738;2023-07-24T08:30:23;5.67;;;3.67;;
25249;SDS011;13201;51.148;13.738;2023-07-24T08:32:48;8.73;;;3.50;;
25249;SDS011;13201;51.148;13.738;2023-07-24T08:35:16;5.50;;;3.70;;
25249;SDS011;13201;51.148;13.738;2023-07-24T08:37:45;7.77;;;3.70;;
25249;SDS011;13201;51.148;13.738;2023-07-24T08:40:10;7.43;;;3.83;;
25249;SDS011;13201;51.148;13.738;2023-07-24T08:42:40;5.50;;;3.90;;
25249;SDS011;13201;51.148;13.738;2023-07-24T08:45:11;5.90;;;3.92;;
25249;SDS011;13201;51.148;13.738;2023-07-24T08:47:40;7.85;;;3.90;;
25249;SDS011;13201;51.148;13.738;2023-07-24T08:50:08;6.00;;;3.78;;
25249;SDS011;13201;51.148;13.738;2023-07-24T08:52:36;7.85;;;4.20;;
25249;SDS011;13201;51.148;13.738;2023-07-24T08:55:05;5.95;;;4.00;;
25249;SDS011;13201;51.148;13.738;2023-07-24T08:57:31;6.95;;;4.30;;
25249;SDS011;13201;51.148;13.738;2023-07-24T08:59:57;7.60;;;4.53;;
25249;SDS011;13201;51.148;13.738;2023-07-24T09:02:25;8.63;;;3.72;;
25249;SDS011;13201;51.148;13.738;2023-07-24T09:04:51;8.13;;;4.57;;
25249;SDS011;13201;51.148;13.738;2023-07-24T09:07:17;9.80;;;4.60;;
25249;SDS011;13201;51.148;13.738;2023-07-24T09:09:44;10.18;;;5.43;;
25249;SDS011;13201;51.148;13.738;2023-07-24T09:12:13;9.85;;;4.72;;
25249;SDS011;13201;51.148;13.738;2023-07-24T09:14:40;12.70;;;5.45;;
25249;SDS011;13201;51.148;13.738;2023-07-24T09:17:09;10.10;;;5.73;;
25249;SDS011;13201;51.148;13.738;2023-07-24T09:19:36;9.15;;;5.30;;
25249;SDS011;13201;51.148;13.738;2023-07-24T09:22:12;8.55;;;5.65;;
25249;SDS011;13201;51.148;13.738;2023-07-24T09:24:49;10.52;;;5.72;;
25249;SDS011;13201;51.148;13.738;2023-07-24T09:27:16;13.13;;;5.35;;
25249;SDS011;13201;51.148;13.738;2023-07-24T09:29:43;12.23;;;5.25;;
25249;SDS011;13201;51.148;13.738;2023-07-24T09:32:19;11.45;;;5.50;;
25249;SDS011;13201;51.148;13.738;2023-07-24T09:34:49;8.90;;;5.63;;
25249;SDS011;13201;51.148;13.738;2023-07-24T09:39:50;9.38;;;5.90;;
25249;SDS011;13201;51.148;13.738;2023-07-24T09:42:15;14.83;;;5.37;;
25249;SDS011;13201;51.148;13.738;2023-07-24T09:44:41;11.97;;;5.40;;
25249;SDS011;13201;51.148;13.738;2023-07-24T09:47:07;9.77;;;5.90;;
25249;SDS011;13201;51.148;13.738;2023-07-24T09:49:32;9.20;;;5.73;;
25249;SDS011;13201;51.148;13.738;2023-07-24T09:51:58;9.67;;;5.23;;
25249;SDS011;13201;51.148;13.738;2023-07-24T09:54:31;10.57;;;5.40;;
25249;SDS011;13201;51.148;13.738;2023-07-24T09:57:06;9.10;;;5.57;;
25249;SDS011;13201;51.148;13.738;2023-07-24T09:59:33;9.25;;;5.90;;
25249;SDS011;13201;51.148;13.738;2023-07-24T10:02:00;9.45;;;5.03;;
25249;SDS011;13201;51.148;13.738;2023-07-24T10:04:26;9.43;;;5.28;;
25249;SDS011;13201;51.148;13.738;2023-07-24T10:06:53;7.80;;;4.95;;
25249;SDS011;13201;51.148;13.738;2023-07-24T10:09:19;10.37;;;5.00;;
25249;SDS011;13201;51.148;13.738;2023-07-24T10:11:47;9.15;;;5.10;;
25249;SDS011;13201;51.148;13.738;2023-07-24T10:14:13;9.73;;;5.10;;
25249;SDS011;13201;51.148;13.738;2023-07-24T10:16:39;10.98;;;5.53;;
25249;SDS011;13201;51.148;13.738;2023-07-24T10:19:15;8.50;;;5.17;;
25249;SDS011;13201;51.148;13.738;2023-07-24T10:21:47;8.18;;;4.85;;
25249;SDS011;13201;51.148;13.738;2023-07-24T10:24:14;7.25;;;4.70;;
25249;SDS011;13201;51.148;13.738;2023-07-24T10:26:40;12.10;;;5.75;;
25249;SDS011;13201;51.148;13.738;2023-07-24T10:29:06;7.73;;;5.03;;
25249;SDS011;13201;51.148;13.738;2023-07-24T10:31:32;9.33;;;5.60;;
25249;SDS011;13201;51.148;13.738;2023-07-24T10:34:04;8.57;;;5.07;;
25249;SDS011;13201;51.148;13.738;2023-07-24T10:36:34;8.85;;;4.70;;
25249;SDS011;13201;51.148;13.738;2023-07-24T10:39:01;6.78;;;4.15;;
25249;SDS011;13201;51.148;13.738;2023-07-24T10:41:37;7.72;;;4.47;;
25249;SDS011;13201;51.148;13.738;2023-07-24T10:44:04;8.63;;;4.35;;
25249;SDS011;13201;51.148;13.738;2023-07-24T10:46:37;8.13;;;4.50;;
25249;SDS011;13201;51.148;13.738;2023-07-24T10:49:04;6.25;;;4.07;;
25249;SDS011;13201;51.148;13.738;2023-07-24T10:51:31;6.43;;;4.55;;
25249;SDS011;13201;51.148;13.738;2023-07-24T10:54:03;8.07;;;4.28;;
25249;SDS011;13201;51.148;13.738;2023-07-24T10:56:29;9.05;;;4.78;;
25249;SDS011;13201;51.148;13.738;2023-07-24T10:58:55;7.57;;;4.40;;
25249;SDS011;13201;51.148;13.738;2023-07-24T11:01:21;9.37;;;5.53;;
25249;SDS011;13201;51.148;13.738;2023-07-24T11:03:48;16.17;;;4.80;;
25249;SDS011;13201;51.148;13.738;2023-07-24T11:06:15;9.35;;;4.40;;
25249;SDS011;13201;51.148;13.738;2023-07-24T11:08:50;10.43;;;4.72;;
25249;SDS011;13201;51.148;13.738;2023-07-24T11:11:21;7.22;;;4.22;;
25249;SDS011;13201;51.148;13.738;2023-07-24T11:13:48;7.00;;;4.00;;
25249;SDS011;13201;51.148;13.738;2023-07-24T11:16:14;8.17;;;4.10;;
25249;SDS011;13201;51.148;13.738;2023-07-24T11:18:46;8.90;;;4.43;;
25249;SDS011;13201;51.148;13.738;2023-07-24T11:21:14;6.90;;;4.22;;
25249;SDS011;13201;51.148;13.738;2023-07-24T11:23:48;6.65;;;3.95;;
25249;SDS011;13201;51.148;13.738;2023-07-24T11:26:15;8.55;;;4.38;;
25249;SDS011;13201;51.148;13.738;2023-07-24T11:28:43;8.23;;;4.32;;
25249;SDS011;13201;51.148;13.738;2023-07-24T11:31:08;8.40;;;4.07;;
25249;SDS011;13201;51.148;13.738;2023-07-24T11:33:34;8.77;;;5.27;;
25249;SDS011;13201;51.148;13.738;2023-07-24T11:36:01;9.68;;;5.18;;
25249;SDS011;13201;51.148;13.738;2023-07-24T11:38:27;9.63;;;5.05;;
25249;SDS011;13201;51.148;13.738;2023-07-24T11:40:53;10.60;;;5.17;;
25249;SDS011;13201;51.148;13.738;2023-07-24T11:43:21;8.07;;;5.20;;
25249;SDS011;13201;51.148;13.738;2023-07-24T11:45:49;8.60;;;5.18;;
25249;SDS011;13201;51.148;13.738;2023-07-24T11:48:20;14.50;;;5.65;;
25249;SDS011;13201;51.148;13.738;2023-07-24T11:50:48;12.80;;;5.80;;
25249;SDS011;13201;51.148;13.738;2023-07-24T11:53:18;10.48;;;5.60;;
25249;SDS011;13201;51.148;13.738;2023-07-24T11:55:49;9.10;;;5.57;;
25249;SDS011;13201;51.148;13.738;2023-07-24T11:58:16;8.90;;;5.40;;
25249;SDS011;13201;51.148;13.738;2023-07-24T12:00:43;10.48;;;6.13;;
25249;SDS011;13201;51.148;13.738;2023-07-24T12:03:10;9.23;;;5.68;;
25249;SDS011;13201;51.148;13.738;2023-07-24T12:05:42;9.60;;;5.63;;
25249;SDS011;13201;51.148;13.738;2023-07-24T12:08:08;11.32;;;5.57;;
25249;SDS011;13201;51.148;13.738;2023-07-24T12:13:03;11.25;;;4.70;;
25249;SDS011;13201;51.148;13.738;2023-07-24T12:15:29;8.30;;;5.05;;
25249;SDS011;13201;51.148;13.738;2023-07-24T12:17:56;10.82;;;5.47;;
25249;SDS011;13201;51.148;13.738;2023-07-24T12:20:22;7.97;;;4.75;;
25249;SDS011;13201;51.148;13.738;2023-07-24T12:22:48;7.60;;;4.82;;
25249;SDS011;13201;51.148;13.738;2023-07-24T12:25:14;10.17;;;5.80;;
25249;SDS011;13201;51.148;13.738;2023-07-24T12:27:44;13.73;;;6.03;;
25249;SDS011;13201;51.148;13.738;2023-07-24T12:30:10;11.50;;;5.70;;
25249;SDS011;13201;51.148;13.738;2023-07-24T12:32:36;9.80;;;5.90;;
25249;SDS011;13201;51.148;13.738;2023-07-24T12:35:02;9.73;;;5.20;;
25249;SDS011;13201;51.148;13.738;2023-07-24T12:37:28;8.80;;;5.67;;
25249;SDS011;13201;51.148;13.738;2023-07-24T12:39:53;10.87;;;5.63;;
25249;SDS011;13201;51.148;13.738;2023-07-24T12:42:19;12.53;;;6.03;;
25249;SDS011;13201;51.148;13.738;2023-07-24T12:44:45;11.90;;;5.73;;
25249;SDS011;13201;51.148;13.738;2023-07-24T12:47:11;10.97;;;6.20;;
25249;SDS011;13201;51.148;13.738;2023-07-24T12:49:37;10.02;;;5.65;;
25249;SDS011;13201;51.148;13.738;2023-07-24T12:52:03;9.83;;;5.70;;
25249;SDS011;13201;51.148;13.738;2023-07-24T12:54:29;11.20;;;6.07;;
25249;SDS011;13201;51.148;13.738;2023-07-24T12:56:55;9.73;;;6.37;;
25249;SDS011;13201;51.148;13.738;2023-07-24T12:59:20;15.73;;;6.20;;
25249;SDS011;13201;51.148;13.738;2023-07-24T13:01:46;9.93;;;5.47;;
25249;SDS011;13201;51.148;13.738;2023-07-24T13:04:12;12.20;;;5.90;;
25249;SDS011;13201;51.148;13.738;2023-07-24T13:06:37;12.27;;;5.80;;
25249;SDS011;13201;51.148;13.738;2023-07-24T13:09:03;11.07;;;5.50;;
25249;SDS011;13201;51.148;13.738;2023-07-24T13:11:30;9.77;;;5.97;;
25249;SDS011;13201;51.148;13.738;2023-07-24T13:13:56;10.67;;;6.33;;
25249;SDS011;13201;51.148;13.738;2023-07-24T13:16:22;11.18;;;6.38;;
25249;SDS011;13201;51.148;13.738;2023-07-24T13:18:48;11.00;;;6.00;;
25249;SDS011;13201;51.148;13.738;2023-07-24T13:21:14;9.37;;;6.37;;
25249;SDS011;13201;51.148;13.738;2023-07-24T13:23:40;12.07;;;5.90;;
25249;SDS011;13201;51.148;13.738;2023-07-24T13:26:06;11.10;;;5.93;;
25249;SDS011;13201;51.148;13.738;2023-07-24T13:28:44;10.10;;;5.57;;
25249;SDS011;13201;51.148;13.738;2023-07-24T13:31:11;10.10;;;5.63;;
25249;SDS011;13201;51.148;13.738;2023-07-24T13:33:40;9.98;;;6.00;;
25249;SDS011;13201;51.148;13.738;2023-07-24T13:36:06;10.77;;;5.60;;
25249;SDS011;13201;51.148;13.738;2023-07-24T13:38:32;9.53;;;5.53;;
25249;SDS011;13201;51.148;13.738;2023-07-24T13:40:58;8.77;;;4.90;;
25249;SDS011;13201;51.148;13.738;2023-07-24T13:43:24;7.83;;;4.80;;
25249;SDS011;13201;51.148;13.738;2023-07-24T13:45:49;9.63;;;5.80;;
25249;SDS011;13201;51.148;13.738;2023-07-24T13:48:15;10.37;;;5.50;;
25249;SDS011;13201;51.148;13.738;2023-07-24T13:50:41;11.27;;;5.70;;
25249;SDS011;13201;51.148;13.738;2023-07-24T13:53:07;8.23;;;5.33;;
25249;SDS011;13201;51.148;13.738;2023-07-24T13:55:33;9.13;;;5.13;;
25249;SDS011;13201;51.148;13.738;2023-07-24T13:57:58;9.17;;;5.53;;
25249;SDS011;13201;51.148;13.738;2023-07-24T14:00:24;8.63;;;4.83;;
25249;SDS011;13201;51.148;13.738;2023-07-24T14:02:50;8.17;;;4.60;;
25249;SDS011;13201;51.148;13.738;2023-07-24T14:05:16;7.07;;;4.90;;
25249;SDS011;13201;51.148;13.738;2023-07-24T14:07:41;9.07;;;4.63;;
25249;SDS011;13201;51.148;13.738;2023-07-24T14:10:08;6.73;;;4.53;;
25249;SDS011;13201;51.148;13.738;2023-07-24T14:12:34;8.50;;;4.70;;
25249;SDS011;13201;51.148;13.738;2023-07-24T14:14:59;7.03;;;4.60;;
25249;SDS011;13201;51.148;13.738;2023-07-24T14:17:25;9.83;;;5.20;;
25249;SDS011;13201;51.148;13.738;2023-07-24T14:19:51;7.03;;;4.50;;
25249;SDS011;13201;51.148;13.738;2023-07-24T14:22:16;7.77;;;4.50;;
25249;SDS011;13201;51.148;13.738;2023-07-24T14:24:42;8.60;;;4.20;;
25249;SDS011;13201;51.148;13.738;2023-07-24T14:27:08;11.43;;;4.60;;
25249;SDS011;13201;51.148;13.738;2023-07-24T14:29:34;8.27;;;3.97;;
25249;SDS011;13201;51.148;13.738;2023-07-24T14:31:59;8.73;;;3.90;;
25249;SDS011;13201;51.148;13.738;2023-07-24T14:34:25;5.57;;;3.63;;
25249;SDS011;13201;51.148;13.738;2023-07-24T14:36:51;6.27;;;3.80;;
25249;SDS011;13201;51.148;13.738;2023-07-24T14:41:43;5.37;;;3.40;;
25249;SDS011;13201;51.148;13.738;2023-07-24T14:44:08;6.17;;;3.53;;
25249;SDS011;13201;51.148;13.738;2023-07-24T14:49:01;6.23;;;4.13;;
25249;SDS011;13201;51.148;13.738;2023-07-24T14:51:26;5.97;;;3.93;;
25249;SDS011;13201;51.148;13.738;2023-07-24T14:53:52;8.23;;;4.33;;
25249;SDS011;13201;51.148;13.738;2023-07-24T14:56:18;7.27;;;4.20;;
25249;SDS011;13201;51.148;13.738;2023-07-24T14:58:45;7.10;;;4.10;;
25249;SDS011;13201;51.148;13.738;2023-07-24T15:01:11;6.63;;;4.57;;
25249;SDS011;13201;51.148;13.738;2023-07-24T15:03:37;7.85;;;4.75;;
25249;SDS011;13201;51.148;13.738;2023-07-24T15:06:03;8.33;;;4.87;;